createdAt,value
2023-04-16T00:00:59.916Z,6.90
2023-04-16T00:03:48.308Z,6.90
2023-04-16T00:06:36.204Z,6.90
2023-04-16T00:09:23.901Z,6.90
2023-04-16T00:12:12.614Z,6.90
2023-04-16T00:15:00.114Z,6.90
2023-04-16T00:17:47.720Z,6.90
2023-04-16T00:20:35.451Z,6.90
2023-04-16T00:23:22.935Z,6.90
2023-04-16T00:26:10.671Z,6.90
2023-04-16T00:29:05.692Z,7.00
2023-04-16T00:31:54.691Z,7.00
2023-04-16T00:34:44.037Z,7.00
2023-04-16T00:37:35.031Z,7.00
2023-04-16T00:40:22.508Z,7.00
2023-04-16T00:43:15.545Z,6.90
2023-04-16T00:46:07.774Z,6.90
2023-04-16T00:48:57.493Z,6.90
2023-04-16T00:51:44.968Z,6.90
2023-04-16T00:54:36.660Z,6.90
2023-04-16T00:57:24.437Z,6.90
2023-04-16T01:00:17.566Z,6.90
2023-04-16T01:03:07.665Z,6.90
2023-04-16T01:05:55.609Z,6.90
2023-04-16T01:08:43.222Z,6.90
2023-04-16T01:11:38.228Z,6.90
2023-04-16T01:14:29.486Z,6.90
2023-04-16T01:17:17.370Z,6.90
2023-04-16T01:20:06.815Z,6.90
2023-04-16T01:22:57.939Z,6.90
2023-04-16T01:25:48.735Z,6.80
2023-04-16T01:28:39.877Z,6.80
2023-04-16T01:31:27.732Z,6.80
2023-04-16T01:34:23.270Z,6.80
2023-04-16T01:37:10.883Z,6.80
2023-04-16T01:39:59.833Z,6.80
2023-04-16T01:42:47.050Z,6.90
2023-04-16T01:45:36.104Z,6.90
2023-04-16T01:48:24.089Z,6.90
2023-04-16T01:51:11.976Z,6.90
2023-04-16T01:54:00.490Z,6.90
2023-04-16T01:56:49.298Z,6.90
2023-04-16T01:59:41.977Z,7.00
2023-04-16T02:02:36.616Z,7.00
2023-04-16T02:05:24.158Z,7.00
2023-04-16T02:08:11.893Z,6.90
2023-04-16T02:10:59.588Z,7.00
2023-04-16T02:13:48.663Z,7.00
2023-04-16T02:16:38.611Z,6.90
2023-04-16T02:19:34.101Z,7.00
2023-04-16T02:22:25.773Z,6.90
2023-04-16T02:25:16.347Z,7.00
2023-04-16T02:28:06.198Z,6.90
2023-04-16T02:31:01.519Z,7.00
2023-04-16T02:33:56.098Z,6.90
2023-04-16T02:36:43.866Z,6.90
2023-04-16T02:39:31.044Z,6.90
2023-04-16T02:42:21.946Z,6.90
2023-04-16T02:45:11.646Z,6.90
2023-04-16T02:48:03.940Z,6.90
2023-04-16T02:50:51.447Z,6.90
2023-04-16T02:53:38.847Z,6.90
2023-04-16T02:56:29.578Z,6.90
2023-04-16T02:59:16.959Z,6.90
2023-04-16T03:02:04.684Z,6.90
2023-04-16T03:04:53.714Z,6.90
2023-04-16T03:07:41.172Z,6.90
2023-04-16T03:10:36.986Z,6.90
2023-04-16T03:13:24.704Z,6.90
2023-04-16T03:16:12.595Z,6.90
2023-04-16T03:19:00.757Z,6.90
2023-04-16T03:21:49.736Z,6.90
2023-04-16T03:24:41.039Z,6.90
2023-04-16T03:27:30.378Z,6.90
2023-04-16T03:30:22.234Z,6.90
2023-04-16T03:33:17.808Z,7.00
2023-04-16T03:36:05.261Z,6.90
2023-04-16T03:38:57.472Z,6.90
2023-04-16T03:41:47.954Z,6.90
2023-04-16T03:44:36.017Z,6.90
2023-04-16T03:47:25.576Z,7.00
2023-04-16T03:50:19.708Z,7.00
2023-04-16T03:53:07.953Z,7.00
2023-04-16T03:56:04.181Z,7.00
2023-04-16T03:58:51.878Z,7.00
2023-04-16T04:01:40.336Z,7.00
2023-04-16T04:04:31.937Z,7.00
2023-04-16T04:07:19.390Z,7.00
2023-04-16T04:10:07.653Z,7.00
2023-04-16T04:12:59.772Z,7.00
2023-04-16T04:15:47.481Z,6.90
2023-04-16T04:18:34.695Z,6.90
2023-04-16T04:21:21.632Z,6.90
2023-04-16T04:24:09.574Z,6.90
2023-04-16T04:26:57.502Z,6.90
2023-04-16T04:29:46.555Z,6.90
2023-04-16T04:32:33.791Z,6.90
2023-04-16T04:35:21.111Z,6.80
2023-04-16T04:38:09.842Z,6.90
2023-04-16T04:41:03.927Z,6.80
2023-04-16T04:43:55.674Z,6.90
2023-04-16T04:46:44.902Z,6.80
2023-04-16T04:49:34.211Z,6.80
2023-04-16T04:52:21.995Z,6.80
2023-04-16T04:55:11.765Z,6.80
2023-04-16T04:58:00.113Z,6.80
2023-04-16T05:00:48.021Z,6.80
2023-04-16T05:03:42.703Z,6.80
2023-04-16T05:06:30.190Z,6.80
2023-04-16T05:09:17.409Z,6.80
2023-04-16T05:12:05.370Z,6.80
2023-04-16T05:14:52.586Z,6.90
2023-04-16T05:17:39.424Z,6.90
2023-04-16T05:20:27.938Z,6.90
2023-04-16T05:23:15.791Z,6.90
2023-04-16T05:26:03.099Z,6.90
2023-04-16T05:28:50.163Z,6.90
2023-04-16T05:31:37.397Z,7.00
2023-04-16T05:34:24.612Z,7.00
2023-04-16T05:37:12.961Z,7.00
2023-04-16T05:39:59.740Z,7.10
2023-04-16T05:42:46.662Z,7.10
2023-04-16T05:45:39.884Z,7.20
2023-04-16T05:48:26.886Z,7.20
2023-04-16T05:51:13.727Z,7.20
2023-04-16T05:54:02.145Z,7.20
2023-04-16T05:56:49.014Z,7.10
2023-04-16T05:59:36.049Z,7.20
2023-04-16T06:02:24.027Z,7.20
2023-04-16T06:05:11.973Z,7.20
2023-04-16T06:08:01.939Z,7.30
2023-04-16T06:10:52.629Z,7.30
2023-04-16T06:13:47.102Z,7.40
2023-04-16T06:16:36.001Z,7.50
2023-04-16T06:19:23.609Z,7.50
2023-04-16T06:22:11.589Z,7.60
2023-04-16T06:24:59.351Z,7.70
2023-04-16T06:27:51.539Z,7.80
2023-04-16T06:30:44.046Z,7.90
2023-04-16T06:33:32.546Z,8.00
2023-04-16T06:36:19.951Z,8.10
2023-04-16T06:39:07.619Z,8.30
2023-04-16T06:41:55.399Z,8.40
2023-04-16T06:44:46.514Z,8.50
2023-04-16T06:47:34.094Z,8.60
2023-04-16T06:50:21.369Z,8.60
2023-04-16T06:53:08.939Z,8.60
2023-04-16T06:55:55.891Z,8.50
2023-04-16T06:58:42.982Z,8.50
2023-04-16T07:01:32.262Z,8.50
2023-04-16T07:04:19.589Z,8.60
2023-04-16T07:07:06.752Z,8.50
2023-04-16T07:09:53.756Z,8.50
2023-04-16T07:12:43.573Z,8.60
2023-04-16T07:15:31.000Z,8.60
2023-04-16T07:18:20.785Z,8.60
2023-04-16T07:21:07.920Z,8.60
2023-04-16T07:23:54.743Z,8.70
2023-04-16T07:26:42.019Z,8.70
2023-04-16T07:29:29.147Z,8.70
2023-04-16T07:32:16.509Z,8.70
2023-04-16T07:35:05.528Z,8.70
2023-04-16T07:37:52.450Z,8.60
2023-04-16T07:40:39.423Z,8.60
2023-04-16T07:43:26.677Z,8.60
2023-04-16T07:46:13.828Z,8.60
2023-04-16T07:49:01.069Z,8.70
2023-04-16T07:51:49.373Z,8.70
2023-04-16T07:54:36.565Z,8.80
2023-04-16T07:57:23.697Z,8.90
2023-04-16T08:00:13.289Z,8.80
2023-04-16T08:03:00.799Z,8.80
2023-04-16T08:05:48.120Z,8.90
2023-04-16T08:08:36.301Z,8.90
2023-04-16T08:11:23.619Z,9.00
2023-04-16T08:14:10.815Z,9.00
2023-04-16T08:16:59.308Z,9.00
2023-04-16T08:19:46.992Z,9.10
2023-04-16T08:22:34.898Z,9.20
2023-04-16T08:25:25.265Z,9.30
2023-04-16T08:28:13.107Z,9.30
2023-04-16T08:31:01.649Z,9.50
2023-04-16T08:33:49.685Z,9.60
2023-04-16T08:36:37.263Z,9.80
2023-04-16T08:39:26.960Z,9.80
2023-04-16T08:42:33.502Z,10.00
2023-04-16T08:45:21.298Z,10.10
2023-04-16T08:48:13.659Z,10.10
2023-04-16T08:51:03.774Z,10.20
2023-04-16T08:53:54.815Z,10.40
2023-04-16T08:56:43.731Z,10.60
2023-04-16T08:59:32.669Z,10.70
2023-04-16T09:02:20.412Z,10.90
2023-04-16T09:05:09.707Z,11.00
2023-04-16T09:07:56.888Z,11.20
2023-04-16T09:10:44.957Z,11.30
2023-04-16T09:13:32.801Z,11.40
2023-04-16T09:16:22.894Z,11.40
2023-04-16T09:19:10.205Z,11.50
2023-04-16T09:21:57.846Z,11.50
2023-04-16T09:24:45.073Z,11.50
2023-04-16T09:27:32.913Z,11.50
2023-04-16T09:30:23.259Z,11.60
2023-04-16T09:33:22.817Z,11.60
2023-04-16T09:36:11.782Z,11.80
2023-04-16T09:38:59.539Z,12.10
2023-04-16T09:41:48.128Z,12.30
2023-04-16T09:44:37.925Z,12.20
2023-04-16T09:47:27.386Z,12.30
2023-04-16T09:50:19.115Z,12.30
2023-04-16T09:53:05.890Z,12.30
2023-04-16T09:55:52.807Z,12.10
2023-04-16T09:58:40.153Z,12.10
2023-04-16T10:01:27.535Z,12.00
2023-04-16T10:04:30.333Z,12.00
2023-04-16T10:07:19.550Z,12.00
2023-04-16T10:10:07.604Z,12.10
2023-04-16T10:12:56.554Z,12.10
2023-04-16T10:15:43.703Z,12.20
2023-04-16T10:18:31.602Z,12.20
2023-04-16T10:21:18.994Z,12.10
2023-04-16T10:24:09.217Z,12.10
2023-04-16T10:26:57.350Z,12.20
2023-04-16T10:29:45.752Z,12.20
2023-04-16T10:32:33.710Z,12.30
2023-04-16T10:35:21.732Z,12.40
2023-04-16T10:38:24.446Z,12.30
2023-04-16T10:41:13.422Z,12.20
2023-04-16T10:44:09.664Z,12.10
2023-04-16T10:46:56.677Z,12.20
2023-04-16T10:49:44.806Z,12.40
2023-04-16T10:52:31.776Z,12.60
2023-04-16T10:55:19.172Z,12.80
2023-04-16T10:58:28.974Z,12.80
2023-04-16T11:01:16.975Z,12.70
2023-04-16T11:04:34.324Z,12.60
2023-04-16T11:07:22.899Z,12.60
2023-04-16T11:10:14.398Z,12.60
2023-04-16T11:13:02.125Z,12.60
2023-04-16T11:15:52.617Z,12.70
2023-04-16T11:18:51.547Z,12.70
2023-04-16T11:21:39.130Z,12.80
2023-04-16T11:24:30.950Z,12.90
2023-04-16T11:27:17.925Z,12.90
2023-04-16T11:30:09.592Z,12.90
2023-04-16T11:32:58.474Z,12.90
2023-04-16T11:35:46.186Z,12.90
2023-04-16T11:38:36.872Z,13.00
2023-04-16T11:41:24.679Z,12.90
2023-04-16T11:44:22.293Z,12.90
2023-04-16T11:47:14.056Z,12.80
2023-04-16T11:50:20.659Z,12.70
2023-04-16T11:53:14.207Z,12.60
2023-04-16T11:56:02.331Z,12.60
2023-04-16T11:59:09.557Z,12.60
2023-04-16T12:01:57.460Z,12.50
2023-04-16T12:04:47.121Z,12.50
2023-04-16T12:07:50.208Z,12.50
2023-04-16T12:10:39.966Z,12.60
2023-04-16T12:13:32.238Z,12.60
2023-04-16T12:16:23.652Z,12.60
2023-04-16T12:19:14.735Z,12.70
2023-04-16T12:22:04.309Z,12.70
2023-04-16T12:24:58.329Z,12.60
2023-04-16T12:27:50.057Z,12.50
2023-04-16T12:30:54.332Z,12.40
2023-04-16T12:33:42.515Z,12.30
2023-04-16T12:36:29.899Z,12.20
2023-04-16T12:39:17.605Z,12.10
2023-04-16T12:42:09.954Z,12.10
2023-04-16T12:44:56.913Z,12.10
2023-04-16T12:47:44.424Z,12.00
2023-04-16T12:50:31.812Z,12.10
2023-04-16T12:53:19.190Z,12.10
2023-04-16T12:56:06.481Z,12.10
2023-04-16T12:58:54.871Z,12.10
2023-04-16T13:01:42.056Z,12.10
2023-04-16T13:04:29.412Z,12.00
2023-04-16T13:07:16.826Z,12.00
2023-04-16T13:10:04.049Z,11.90
2023-04-16T13:12:51.184Z,11.80
2023-04-16T13:15:39.644Z,11.70
2023-04-16T13:18:28.561Z,11.60
2023-04-16T13:21:15.580Z,11.60
2023-04-16T13:24:02.497Z,11.60
2023-04-16T13:26:49.922Z,11.60
2023-04-16T13:29:37.812Z,11.60
2023-04-16T13:32:26.004Z,11.60
2023-04-16T13:35:13.236Z,11.60
2023-04-16T13:38:00.167Z,11.60
2023-04-16T13:40:47.041Z,11.70
2023-04-16T13:43:34.285Z,11.70
2023-04-16T13:46:21.569Z,11.60
2023-04-16T13:49:10.634Z,11.60
2023-04-16T13:51:57.964Z,11.60
2023-04-16T13:54:44.932Z,11.60
2023-04-16T13:57:41.224Z,11.60
2023-04-16T14:00:28.628Z,11.60
2023-04-16T14:03:16.225Z,11.60
2023-04-16T14:06:07.796Z,11.70
2023-04-16T14:08:55.312Z,11.70
2023-04-16T14:11:42.964Z,11.70
2023-04-16T14:14:33.615Z,11.70
2023-04-16T14:17:22.230Z,11.70
2023-04-16T14:20:10.904Z,11.80
2023-04-16T14:23:00.347Z,11.80
2023-04-16T14:25:48.466Z,11.90
2023-04-16T14:28:39.645Z,11.90
2023-04-16T14:31:27.463Z,11.90
2023-04-16T14:34:14.941Z,11.90
2023-04-16T14:37:02.324Z,11.90
2023-04-16T14:39:51.967Z,11.90
2023-04-16T14:42:40.005Z,11.90
2023-04-16T14:45:29.001Z,11.90
2023-04-16T14:48:16.082Z,11.80
2023-04-16T14:51:03.022Z,11.80
2023-04-16T14:53:50.121Z,11.80
2023-04-16T14:56:38.493Z,11.80
2023-04-16T14:59:26.475Z,11.80
2023-04-16T15:02:13.741Z,11.80
2023-04-16T15:05:01.828Z,11.80
2023-04-16T15:07:48.940Z,11.80
2023-04-16T15:10:36.209Z,11.70
2023-04-16T15:13:24.282Z,11.70
2023-04-16T15:16:11.573Z,11.70
2023-04-16T15:18:58.990Z,11.70
2023-04-16T15:21:47.551Z,11.70
2023-04-16T15:24:35.971Z,11.70
2023-04-16T15:27:23.061Z,11.70
2023-04-16T15:30:12.797Z,11.70
2023-04-16T15:32:59.826Z,11.70
2023-04-16T15:35:47.044Z,11.70
2023-04-16T15:38:35.111Z,11.70
2023-04-16T15:41:22.555Z,11.70
2023-04-16T15:44:09.674Z,11.70
2023-04-16T15:46:58.254Z,11.70
2023-04-16T15:49:45.858Z,11.60
2023-04-16T15:52:35.266Z,11.60
2023-04-16T15:55:26.554Z,11.50
2023-04-16T15:58:15.789Z,11.40
2023-04-16T16:01:03.702Z,11.30
2023-04-16T16:03:52.849Z,11.30
2023-04-16T16:06:42.596Z,11.20
2023-04-16T16:09:29.970Z,11.20
2023-04-16T16:12:17.630Z,11.20
2023-04-16T16:15:06.622Z,11.20
2023-04-16T16:17:58.911Z,11.10
2023-04-16T16:20:49.217Z,11.10
2023-04-16T16:23:39.833Z,11.20
2023-04-16T16:26:37.844Z,11.20
2023-04-16T16:29:28.452Z,11.20
2023-04-16T16:32:16.677Z,11.10
2023-04-16T16:35:06.891Z,11.10
2023-04-16T16:37:57.667Z,11.00
2023-04-16T16:40:47.638Z,11.00
2023-04-16T16:43:34.852Z,11.00
2023-04-16T16:46:21.835Z,10.90
2023-04-16T16:49:09.994Z,10.90
2023-04-16T16:51:57.743Z,10.80
2023-04-16T16:54:46.377Z,10.80
2023-04-16T16:57:33.472Z,10.70
2023-04-16T17:00:22.078Z,10.60
2023-04-16T17:03:10.000Z,10.60
2023-04-16T17:05:57.503Z,10.50
2023-04-16T17:08:44.812Z,10.50
2023-04-16T17:11:33.465Z,10.50
2023-04-16T17:14:20.458Z,10.50
2023-04-16T17:17:07.290Z,10.50
2023-04-16T17:19:54.783Z,10.40
2023-04-16T17:22:42.302Z,10.30
2023-04-16T17:25:29.806Z,10.20
2023-04-16T17:28:18.436Z,10.10
2023-04-16T17:31:08.510Z,10.00
2023-04-16T17:33:55.441Z,10.00
2023-04-16T17:36:42.750Z,9.90
2023-04-16T17:39:29.882Z,9.80
2023-04-16T17:42:16.875Z,9.80
2023-04-16T17:45:05.716Z,9.70
2023-04-16T17:47:53.015Z,9.60
2023-04-16T17:50:39.921Z,9.50
2023-04-16T17:53:26.832Z,9.50
2023-04-16T17:56:14.957Z,9.40
2023-04-16T17:59:02.398Z,9.30
2023-04-16T18:01:51.363Z,9.30
2023-04-16T18:04:38.441Z,9.20
2023-04-16T18:07:26.718Z,9.20
2023-04-16T18:10:13.878Z,9.10
2023-04-16T18:13:00.774Z,9.00
2023-04-16T18:15:48.218Z,9.00
2023-04-16T18:18:36.493Z,9.00
2023-04-16T18:21:23.567Z,9.00
2023-04-16T18:24:11.379Z,9.00
2023-04-16T18:26:58.957Z,9.10
2023-04-16T18:29:46.505Z,9.10
2023-04-16T18:32:33.801Z,9.20
2023-04-16T18:35:22.698Z,9.20
2023-04-16T18:38:10.286Z,9.20
2023-04-16T18:41:00.071Z,9.20
2023-04-16T18:43:50.210Z,9.30
2023-04-16T18:46:37.556Z,9.30
2023-04-16T18:49:25.980Z,9.30
2023-04-16T18:52:14.951Z,9.30
2023-04-16T18:55:02.739Z,9.30
2023-04-16T18:57:51.319Z,9.30
2023-04-16T19:00:38.977Z,9.40
2023-04-16T19:03:31.391Z,9.40
2023-04-16T19:06:22.543Z,9.40
2023-04-16T19:09:13.728Z,9.40
2023-04-16T19:12:04.127Z,9.40
2023-04-16T19:14:53.547Z,9.30
2023-04-16T19:17:41.050Z,9.30
2023-04-16T19:20:28.678Z,9.30
2023-04-16T19:23:17.098Z,9.30
2023-04-16T19:26:10.078Z,9.30
2023-04-16T19:28:59.847Z,9.20
2023-04-16T19:31:47.999Z,9.20
2023-04-16T19:34:37.583Z,9.20
2023-04-16T19:37:24.732Z,9.20
2023-04-16T19:40:12.775Z,9.20
2023-04-16T19:43:04.758Z,9.20
2023-04-16T19:45:55.720Z,9.20
2023-04-16T19:48:45.598Z,9.20
2023-04-16T19:51:34.931Z,9.20
2023-04-16T19:54:27.515Z,9.20
2023-04-16T19:57:18.124Z,9.20
2023-04-16T20:00:12.682Z,9.10
2023-04-16T20:03:00.552Z,9.10
2023-04-16T20:05:50.712Z,9.00
2023-04-16T20:08:41.045Z,9.00
2023-04-16T20:11:28.303Z,9.00
2023-04-16T20:14:15.744Z,8.90
2023-04-16T20:17:10.084Z,8.80
2023-04-16T20:20:01.746Z,8.80
2023-04-16T20:22:51.959Z,8.70
2023-04-16T20:25:43.534Z,8.70
2023-04-16T20:28:32.867Z,8.60
2023-04-16T20:31:23.889Z,8.60
2023-04-16T20:34:14.480Z,8.50
2023-04-16T20:37:01.868Z,8.40
2023-04-16T20:39:50.534Z,8.40
2023-04-16T20:42:38.938Z,8.40
2023-04-16T20:45:26.548Z,8.30
2023-04-16T20:48:14.252Z,8.30
2023-04-16T20:51:05.254Z,8.30
2023-04-16T20:53:53.396Z,8.30
2023-04-16T20:56:41.128Z,8.30
2023-04-16T20:59:31.697Z,8.30
2023-04-16T21:02:24.443Z,8.30
2023-04-16T21:05:16.612Z,8.20
2023-04-16T21:08:05.522Z,8.20
2023-04-16T21:10:56.404Z,8.10
2023-04-16T21:13:44.073Z,8.10
2023-04-16T21:16:32.147Z,8.10
2023-04-16T21:19:22.952Z,8.00
2023-04-16T21:22:13.133Z,7.90
2023-04-16T21:25:04.348Z,7.90
2023-04-16T21:27:51.946Z,7.90
2023-04-16T21:30:42.380Z,7.90
2023-04-16T21:33:32.570Z,7.90
2023-04-16T21:36:19.957Z,7.90
2023-04-16T21:39:07.047Z,7.90
2023-04-16T21:41:56.779Z,7.90
2023-04-16T21:44:43.569Z,8.00
2023-04-16T21:47:30.841Z,8.00
2023-04-16T21:50:18.052Z,8.00
2023-04-16T21:53:06.695Z,8.10
2023-04-16T21:55:53.400Z,8.10
2023-04-16T21:58:41.698Z,8.10
2023-04-16T22:01:28.891Z,8.10
2023-04-16T22:04:16.217Z,8.20
2023-04-16T22:07:03.468Z,8.20
2023-04-16T22:09:51.040Z,8.10
2023-04-16T22:12:39.907Z,8.10
2023-04-16T22:15:30.531Z,8.00
2023-04-16T22:18:18.372Z,7.90
2023-04-16T22:21:05.890Z,7.90
2023-04-16T22:23:52.554Z,7.80
2023-04-16T22:26:39.903Z,7.70
2023-04-16T22:29:27.017Z,7.70
2023-04-16T22:32:16.641Z,7.60
2023-04-16T22:35:06.093Z,7.60
2023-04-16T22:37:57.624Z,7.60
2023-04-16T22:40:45.189Z,7.50
2023-04-16T22:43:32.736Z,7.50
2023-04-16T22:46:25.108Z,7.40
2023-04-16T22:49:14.562Z,7.40
2023-04-16T22:52:02.103Z,7.30
2023-04-16T22:54:49.662Z,7.30
2023-04-16T22:57:37.400Z,7.30
2023-04-16T23:00:25.090Z,7.30
2023-04-16T23:03:18.491Z,7.30
2023-04-16T23:06:07.690Z,7.40
2023-04-16T23:08:58.994Z,7.40
2023-04-16T23:11:51.496Z,7.30
2023-04-16T23:14:39.159Z,7.40
2023-04-16T23:17:28.928Z,7.40
2023-04-16T23:20:17.364Z,7.30
2023-04-16T23:23:10.279Z,7.30
2023-04-16T23:26:01.336Z,7.20
2023-04-16T23:28:51.518Z,7.10
2023-04-16T23:31:38.512Z,7.00
2023-04-16T23:34:26.359Z,6.90
2023-04-16T23:37:13.756Z,6.90
2023-04-16T23:40:02.103Z,6.80
2023-04-16T23:42:49.264Z,6.80
2023-04-16T23:45:36.513Z,6.70
2023-04-16T23:48:23.626Z,6.70
2023-04-16T23:51:10.597Z,6.70
2023-04-16T23:53:57.681Z,6.70
2023-04-16T23:56:53.914Z,6.70
2023-04-16T23:59:42.722Z,6.70
